»·PEaware :: N413C KWVI-KMRY

N413C :: KWVI-KMRY

FLIGHT INFORMATION

Flight Status: Arrived
Operator: Privately registered:
United States
More flights under this callsign
Pilot: Alec D. (17934)
Aircraft: BEECH AIRCRAFT BONANZA
(BE35)
More flights by this aircraft type
Origin: KWVI Watsonville Mun
United States
Destination: KMRY Monterey Peninsula
United States
More flights between these airports :: More routes between these airports
Route: SNS
File this flight plan on PilotEdge
Remarks:
Altitude:
(Current/Filed)
7,000ft
Speed:
(Current/Filed)
160kts
Departed: 01-Jul-20 10:50 AM
Arrived: 01-Jul-20 11:32 AM
Distance/Time
Traveled:
21nm/0:42
Distance/Time
To Go:
Arrived

Flight Plot

Page will automatically refresh every two minutes.

Flight plan parsing failed; only flown route is shown


Map Options




Map Legend


Flown Route
Filed Route
Departure Airport
Arrival Airport
Navaid (VOR, NDB)
Fix

Horizontal Profiles

Position Reports

Time Latitude Longitude Heading Altitude Ground
Speed
01-Jul-20 10:36 36.934013 -121.789306 28 163ft 0kts
01-Jul-20 10:37 36.934013 -121.789306 28 163ft 0kts
01-Jul-20 10:38 36.934013 -121.789306 28 163ft 0kts
01-Jul-20 10:39 36.934013 -121.789306 28 163ft 0kts
01-Jul-20 10:40 36.934018 -121.789303 28 163ft 0kts
01-Jul-20 10:41 36.934025 -121.789298 28 163ft 0kts
01-Jul-20 10:42 36.935433 -121.789187 32 163ft 11kts
01-Jul-20 10:43 36.938153 -121.787017 32 163ft 13kts
01-Jul-20 10:44 36.938722 -121.787006 299 163ft 0kts
01-Jul-20 10:45 36.938727 -121.787017 299 163ft 0kts
01-Jul-20 10:45 36.938731 -121.787026 299 163ft 0kts
01-Jul-20 10:46 36.938735 -121.787034 299 163ft 0kts
01-Jul-20 10:48 36.938739 -121.787043 299 163ft 0kts
01-Jul-20 10:48 36.938865 -121.787287 304 163ft 5kts
01-Jul-20 10:49 36.928267 -121.796270 216 415ft 97kts
01-Jul-20 10:50 36.912754 -121.812435 198 1396ft 103kts
01-Jul-20 10:58 36.936034 -121.788671 33 163ft 18kts
01-Jul-20 10:59 36.938719 -121.787030 303 163ft 0kts
01-Jul-20 11:00 36.938726 -121.787042 303 163ft 0kts
01-Jul-20 11:01 36.938730 -121.787050 303 163ft 0kts
01-Jul-20 11:02 36.932189 -121.793233 213 240ft 89kts
01-Jul-20 11:03 36.909626 -121.813162 187 1435ft 107kts
01-Jul-20 11:04 36.879661 -121.811005 177 2578ft 104kts
01-Jul-20 11:05 36.849366 -121.807231 177 3620ft 112kts
01-Jul-20 11:06 36.817727 -121.804214 184 4668ft 115kts
01-Jul-20 11:07 36.788819 -121.784878 134 5688ft 126kts
01-Jul-20 11:08 36.765739 -121.751409 138 6670ft 126kts
01-Jul-20 11:09 36.741216 -121.713878 128 6985ft 155kts
01-Jul-20 11:10 36.713161 -121.671142 133 7076ft 162kts
01-Jul-20 11:11 36.683948 -121.626803 132 7042ft 169kts
01-Jul-20 11:12 36.647494 -121.592491 157 7021ft 165kts
01-Jul-20 11:13 36.604082 -121.568541 160 6497ft 173kts
01-Jul-20 11:14 36.560412 -121.546356 160 6166ft 161kts
01-Jul-20 11:15 36.519710 -121.523402 161 6114ft 158kts
01-Jul-20 11:16 36.479818 -121.500826 158 6107ft 156kts
01-Jul-20 11:17 36.456906 -121.455494 124 6148ft 157kts
01-Jul-20 11:18 36.454549 -121.412136 5 6102ft 141kts
01-Jul-20 11:19 36.460282 -121.448576 258 6155ft 133kts
01-Jul-20 11:20 36.465282 -121.491305 292 6156ft 127kts
01-Jul-20 11:21 36.479516 -121.533030 295 5795ft 130kts
01-Jul-20 11:22 36.494621 -121.573456 292 5148ft 131kts
01-Jul-20 11:23 36.508108 -121.612322 290 4645ft 112kts
01-Jul-20 11:24 36.519924 -121.647347 289 4006ft 110kts
01-Jul-20 11:25 36.531529 -121.681479 292 3045ft 98kts
01-Jul-20 11:26 36.543254 -121.714568 294 2661ft 107kts
01-Jul-20 11:27 36.554881 -121.747976 292 2062ft 104kts
01-Jul-20 11:28 36.565836 -121.780361 282 1841ft 100kts
01-Jul-20 11:29 36.575711 -121.810345 288 1031ft 89kts
01-Jul-20 11:30 36.584235 -121.836224 288 293ft 76kts
01-Jul-20 11:31 36.586975 -121.845685 202 260ft 4kts
01-Jul-20 11:32 36.587433 -121.848825 293 260ft 13kts
01-Jul-20 11:33 36.588945 -121.853205 293 260ft 15kts
01-Jul-20 11:34 36.588605 -121.853947 110 260ft 0kts
01-Jul-20 11:35 36.588605 -121.853947 110 260ft 0kts

Navigation Log

Ident Type
Flight plan parsing failed, navigation log unavailable